Olean, New York
Current Conditions -  °F | °C
As of 5:15 PM on Monday 26 Jan 2015 (Local Time) from KOLE Reporting Station
Light Snow Light Snow  
Wind Chill:   Ceiling: 2600
Heat Index: 14°   Visibility: 10mi
Dew Point: 14°   Wind: 9mph
Humidity: 100%   Direction: 80°E
Pressure: 29.74"   Gusts: NA
Location:  42.08°N, 78.43°W
Report Text: KOLE 262215Z AUTO 08008KT 10SM -SN OVC026 M10/M10 A2974 RMK AO2
Loading
Personal Weather Stations






























Interactive Weather Map New forecast layout! Learn more

10-Day Weather Forecast

Advertisements
Track Severe Weather on mobile